Time;durP1;ratioP1;P1;durP2;ratioP2;P2;SDS_P1;SDS_P2;PMS_P1;PMS_P2;Temp;Humidity;BMP_temperature;BMP_pressure;BME280_temperature;BME280_humidity;BME280_pressure;Samples;Min_cycle;Max_cycle;Signal;HPM_P1;HPM_P2
2023/12/19 00:01:11;;;;;;;24.65;12.80;;;;;;;4.21;100.00;102513.28;4954889;28;20476;-84
2023/12/19 00:03:37;;;;;;;23.88;11.63;;;;;;;4.17;100.00;102518.31;4953815;29;20420;-84
2023/12/19 00:06:02;;;;;;;24.25;12.45;;;;;;;4.29;100.00;102535.00;4954419;29;20039;-85
2023/12/19 00:08:28;;;;;;;25.30;12.93;;;;;;;4.23;100.00;102525.38;4954843;29;20031;-85
2023/12/19 00:10:53;;;;;;;25.57;13.10;;;;;;;4.25;100.00;102517.75;4953907;29;20038;-85
2023/12/19 00:13:21;;;;;;;25.85;13.40;;;;;;;4.23;100.00;102496.25;4954701;29;20062;-84
2023/12/19 00:15:46;;;;;;;26.17;13.07;;;;;;;4.25;100.00;102508.31;4954722;29;20043;-85
2023/12/19 00:18:12;;;;;;;24.70;12.95;;;;;;;4.25;100.00;102497.19;4953812;29;20024;-84
2023/12/19 00:20:52;;;;;;;26.50;13.32;;;;;;;4.26;100.00;102496.38;4954172;29;20031;-84
2023/12/19 00:23:23;;;;;;;24.85;13.00;;;;;;;4.19;100.00;102472.13;4954589;29;20031;-85
2023/12/19 00:25:48;;;;;;;25.60;13.20;;;;;;;4.17;100.00;102461.75;4953593;29;20067;-84
2023/12/19 00:28:14;;;;;;;24.23;12.55;;;;;;;4.20;100.00;102471.31;4954209;29;20078;-84
2023/12/19 00:30:39;;;;;;;22.83;11.10;;;;;;;4.25;100.00;102474.91;4953622;29;20023;-84
2023/12/19 00:33:05;;;;;;;24.27;12.20;;;;;;;4.25;100.00;102464.63;4954451;29;20530;-85
2023/12/19 00:35:32;;;;;;;23.33;11.73;;;;;;;4.30;100.00;102459.66;4954231;29;20055;-84
2023/12/19 00:37:57;;;;;;;22.73;10.95;;;;;;;4.38;100.00;102447.97;4953117;29;20452;-85
2023/12/19 00:40:22;;;;;;;24.20;12.38;;;;;;;4.31;100.00;102446.88;4954290;29;20027;-85
2023/12/19 00:42:48;;;;;;;26.05;14.27;;;;;;;4.31;100.00;102453.69;4953982;29;20034;-84
2023/12/19 00:45:13;;;;;;;25.77;13.13;;;;;;;4.31;100.00;102457.16;4953212;29;20081;-84
2023/12/19 00:47:41;;;;;;;27.23;14.03;;;;;;;4.33;100.00;102449.50;4954057;29;20020;-85
2023/12/19 00:50:10;;;;;;;25.55;12.98;;;;;;;4.35;100.00;102441.81;4954560;29;20050;-85
2023/12/19 00:52:35;;;;;;;25.13;13.18;;;;;;;4.33;100.00;102431.50;4953448;29;20050;-85
2023/12/19 00:55:01;;;;;;;24.58;11.98;;;;;;;4.37;100.00;102425.66;4954518;29;20456;-85
2023/12/19 00:57:26;;;;;;;26.27;13.57;;;;;;;4.42;100.00;102424.13;4953825;29;20035;-85
2023/12/19 00:59:51;;;;;;;28.00;13.83;;;;;;;4.38;100.00;102424.84;4953015;29;20057;-84
2023/12/19 01:02:17;;;;;;;24.03;11.93;;;;;;;4.32;100.00;102415.22;4953833;29;20031;-85
2023/12/19 01:04:42;;;;;;;24.30;12.70;;;;;;;4.38;100.00;102418.81;4953873;29;20441;-84
2023/12/19 01:07:07;;;;;;;24.80;12.83;;;;;;;4.38;100.00;102412.00;4955963;28;20488;-85
2023/12/19 01:09:32;;;;;;;27.50;14.30;;;;;;;4.33;100.00;102400.66;4957504;29;20023;-85
2023/12/19 01:11:58;;;;;;;28.48;14.65;;;;;;;4.36;100.00;102393.06;4957650;29;20441;-85
2023/12/19 01:14:24;;;;;;;27.17;14.10;;;;;;;4.40;100.00;102394.91;4956844;29;20042;-85
2023/12/19 01:16:49;;;;;;;26.73;13.40;;;;;;;4.39;100.00;102390.56;4957135;29;20058;-84
2023/12/19 01:19:14;;;;;;;25.77;13.15;;;;;;;4.37;100.00;102381.06;4957505;29;20065;-84
2023/12/19 01:21:40;;;;;;;25.50;12.57;;;;;;;4.42;100.00;102392.41;4956333;29;20053;-84
2023/12/19 01:24:05;;;;;;;25.80;12.48;;;;;;;4.42;100.00;102388.13;4957542;29;20094;-85
2023/12/19 01:26:32;;;;;;;25.27;12.38;;;;;;;4.44;100.00;102398.47;4974420;28;20042;-85
2023/12/19 01:29:00;;;;;;;25.35;12.73;;;;;;;4.41;100.00;102388.94;4975698;28;20037;-84
2023/12/19 01:31:25;;;;;;;24.42;12.30;;;;;;;4.48;100.00;102396.06;4976294;28;20460;-85
2023/12/19 01:33:54;;;;;;;25.58;12.60;;;;;;;4.46;100.00;102390.00;4976276;28;20037;-84
2023/12/19 01:36:20;;;;;;;24.50;12.15;;;;;;;4.47;100.00;102383.13;4977245;28;20124;-84
2023/12/19 01:38:46;;;;;;;23.50;11.65;;;;;;;4.50;100.00;102393.53;4977007;28;20109;-84
2023/12/19 01:41:11;;;;;;;24.40;11.75;;;;;;;4.42;100.00;102370.13;4976171;28;20158;-84
2023/12/19 01:43:36;;;;;;;28.33;14.00;;;;;;;4.41;100.00;102365.81;4976727;28;20081;-85
2023/12/19 01:46:02;;;;;;;27.52;14.00;;;;;;;4.47;100.00;102384.03;4976991;28;20034;-84
2023/12/19 01:48:28;;;;;;;28.40;14.43;;;;;;;4.52;100.00;102389.31;4976138;28;20038;-84
2023/12/19 01:50:53;;;;;;;25.55;12.85;;;;;;;4.50;100.00;102383.25;4976164;28;20154;-84
2023/12/19 01:53:21;;;;;;;24.98;11.88;;;;;;;4.54;100.00;102385.13;4976413;28;20105;-85
2023/12/19 01:55:51;;;;;;;28.17;13.77;;;;;;;4.45;100.00;102370.25;4975202;28;20547;-85
2023/12/19 01:58:18;;;;;;;27.23;14.38;;;;;;;4.54;100.00;102381.66;4976115;28;20058;-84
2023/12/19 02:00:43;;;;;;;26.98;14.55;;;;;;;4.54;100.00;102379.09;4976488;28;20038;-85
2023/12/19 02:03:09;;;;;;;30.30;15.93;;;;;;;4.55;100.00;102380.84;4976232;28;20395;-85
2023/12/19 02:05:38;;;;;;;26.60;13.77;;;;;;;4.48;100.00;102370.34;4976443;28;20081;-85
2023/12/19 02:08:04;;;;;;;28.33;14.70;;;;;;;4.59;100.00;102388.72;4976570;28;20026;-85
2023/12/19 02:10:32;;;;;;;26.48;14.07;;;;;;;4.55;100.00;102383.41;4975973;28;20054;-85
2023/12/19 02:12:59;;;;;;;27.27;13.73;;;;;;;4.57;100.00;102376.63;4976441;28;20027;-85
2023/12/19 02:15:27;;;;;;;27.35;14.05;;;;;;;4.49;100.00;102366.06;4976656;28;20114;-84
2023/12/19 02:17:52;;;;;;;26.35;13.38;;;;;;;4.53;100.00;102354.19;4974376;28;20070;-85
2023/12/19 02:20:19;;;;;;;25.50;13.13;;;;;;;4.59;100.00;102354.41;4976470;28;20090;-85
2023/12/19 02:22:50;;;;;;;24.75;12.07;;;;;;;4.62;100.00;102355.38;4976003;28;20023;-86
2023/12/19 02:25:16;;;;;;;22.92;11.27;;;;;;;4.62;100.00;102352.81;4975093;28;20046;-84
2023/12/19 02:27:42;;;;;;;22.02;10.32;;;;;;;4.65;100.00;102344.31;4975737;28;20111;-85
2023/12/19 02:30:10;;;;;;;23.10;11.43;;;;;;;4.61;100.00;102345.91;4975606;28;20031;-84
2023/12/19 02:32:36;;;;;;;25.75;12.07;;;;;;;4.64;100.00;102353.75;4976137;28;20026;-85
2023/12/19 02:35:01;;;;;;;23.95;12.00;;;;;;;4.66;100.00;102355.50;4976415;28;20033;-85
2023/12/19 02:37:27;;;;;;;23.00;11.30;;;;;;;4.64;100.00;102347.72;4975361;28;20031;-85
2023/12/19 02:39:55;;;;;;;23.27;11.90;;;;;;;4.62;100.00;102350.25;4976027;28;20039;-86
2023/12/19 02:42:20;;;;;;;22.45;10.85;;;;;;;4.59;100.00;102344.13;4975639;28;20023;-85
2023/12/19 02:44:46;;;;;;;22.73;10.57;;;;;;;4.58;100.00;102330.38;4974156;28;20037;-85
2023/12/19 02:47:11;;;;;;;25.38;12.55;;;;;;;4.67;100.00;102334.97;4975481;28;20038;-85
2023/12/19 02:49:36;;;;;;;24.05;11.45;;;;;;;4.58;100.00;102325.25;4975008;28;20412;-85
2023/12/19 02:52:05;;;;;;;22.20;10.80;;;;;;;4.61;100.00;102327.91;4972300;28;20058;-85
2023/12/19 02:54:30;;;;;;;22.67;10.73;;;;;;;4.62;100.00;102324.53;4975049;28;20035;-86
2023/12/19 02:56:55;;;;;;;22.15;10.10;;;;;;;4.62;100.00;102306.53;4973233;28;20138;-86
2023/12/19 02:59:20;;;;;;;20.98;10.07;;;;;;;4.64;100.00;102296.28;4974217;28;20023;-85
2023/12/19 03:01:47;;;;;;;23.35;11.35;;;;;;;4.68;100.00;102311.00;4974148;28;20030;-85
2023/12/19 03:04:13;;;;;;;21.52;10.32;;;;;;;4.63;100.00;102290.28;4974616;28;20034;-85
2023/12/19 03:06:38;;;;;;;21.60;10.27;;;;;;;4.61;100.00;102276.50;4973832;28;20030;-84
2023/12/19 03:09:04;;;;;;;20.10;10.18;;;;;;;4.59;100.00;102277.28;4974930;28;20018;-84
2023/12/19 03:11:29;;;;;;;20.38;9.75;;;;;;;4.66;100.00;102279.22;4958547;28;20042;-85
2023/12/19 03:13:54;;;;;;;21.17;9.90;;;;;;;4.63;100.00;102280.00;4954506;29;20114;-85
2023/12/19 03:16:19;;;;;;;20.13;9.32;;;;;;;4.66;100.00;102279.22;4955586;29;20027;-85
2023/12/19 03:18:45;;;;;;;22.55;11.52;;;;;;;4.64;100.00;102274.03;4955073;29;20055;-85
2023/12/19 03:21:10;;;;;;;21.30;10.15;;;;;;;4.64;100.00;102271.47;4954959;29;20019;-85
2023/12/19 03:23:36;;;;;;;21.67;10.35;;;;;;;4.60;100.00;102261.88;4954928;29;20031;-85
2023/12/19 03:26:01;;;;;;;22.67;11.23;;;;;;;4.61;100.00;102253.34;4969377;28;20050;-86
2023/12/19 03:28:26;;;;;;;21.90;10.55;;;;;;;4.56;100.00;102246.31;4973524;28;20022;-86
2023/12/19 03:30:51;;;;;;;20.60;10.45;;;;;;;4.61;100.00;102243.06;4974139;28;20023;-86
2023/12/19 03:33:17;;;;;;;22.30;10.52;;;;;;;4.61;100.00;102231.91;4974100;28;20118;-85
2023/12/19 03:35:42;;;;;;;21.30;10.23;;;;;;;4.62;100.00;102220.78;4973658;28;20033;-85
2023/12/19 03:38:07;;;;;;;20.08;9.15;;;;;;;4.60;100.00;102207.88;4973760;28;20480;-86
2023/12/19 03:40:33;;;;;;;22.35;10.65;;;;;;;4.54;100.00;102205.13;4973707;28;20031;-86
2023/12/19 03:42:58;;;;;;;21.13;9.50;;;;;;;4.63;100.00;102215.69;4993796;28;20530;-86
2023/12/19 03:45:23;;;;;;;21.00;9.77;;;;;;;4.65;100.00;102223.44;4993832;28;20030;-86
2023/12/19 03:47:49;;;;;;;21.20;9.98;;;;;;;4.61;100.00;102212.19;4992944;28;20073;-86
2023/12/19 03:50:14;;;;;;;19.80;9.35;;;;;;;4.63;100.00;102210.56;4993706;28;20019;-86
2023/12/19 03:52:39;;;;;;;24.38;12.52;;;;;;;4.57;100.00;102186.34;4993210;28;20376;-87
2023/12/19 03:55:05;;;;;;;23.45;11.45;;;;;;;4.68;100.00;102209.81;4992752;28;20030;-86
2023/12/19 03:57:30;;;;;;;22.73;11.18;;;;;;;4.63;100.00;102200.28;4993294;28;20483;-86
2023/12/19 03:59:56;;;;;;;24.70;11.82;;;;;;;4.67;100.00;102205.53;4993187;28;20037;-86
2023/12/19 04:02:21;;;;;;;21.20;10.40;;;;;;;4.68;100.00;102196.94;4992578;28;20045;-86
2023/12/19 04:04:46;;;;;;;21.93;10.70;;;;;;;4.68;100.00;102195.28;4993198;28;20030;-86
2023/12/19 04:07:12;;;;;;;22.25;10.57;;;;;;;4.70;100.00;102195.31;4993283;28;20395;-86
2023/12/19 04:09:37;;;;;;;21.58;10.73;;;;;;;4.69;100.00;102185.84;4993024;28;20058;-87
2023/12/19 04:12:03;;;;;;;26.10;13.27;;;;;;;4.71;100.00;102191.91;4993444;28;20121;-85
2023/12/19 04:14:32;;;;;;;25.00;11.93;;;;;;;4.70;100.00;102198.78;4993707;28;20102;-86
2023/12/19 04:16:58;;;;;;;25.95;13.35;;;;;;;4.69;100.00;102190.97;4992531;28;20113;-86
2023/12/19 04:19:24;;;;;;;26.42;12.98;;;;;;;4.70;100.00;102185.91;4993368;28;20102;-86
2023/12/19 04:21:50;;;;;;;28.40;13.90;;;;;;;4.74;100.00;102184.28;4992871;28;20483;-86
2023/12/19 04:24:15;;;;;;;26.53;13.80;;;;;;;4.75;100.00;102176.63;4992296;28;20384;-85
2023/12/19 04:26:46;;;;;;;26.60;13.47;;;;;;;4.65;100.00;102156.59;4993166;28;20031;-86
2023/12/19 04:29:12;;;;;;;25.83;12.77;;;;;;;4.76;100.00;102156.94;4993401;28;20033;-86
2023/12/19 04:31:37;;;;;;;28.70;14.32;;;;;;;4.76;100.00;102144.06;4991718;28;20034;-86
2023/12/19 04:34:02;;;;;;;26.77;13.77;;;;;;;4.77;100.00;102145.81;4993101;28;20058;-86
2023/12/19 04:36:30;;;;;;;28.80;15.03;;;;;;;4.82;100.00;102136.53;4993302;28;20031;-86
2023/12/19 04:38:55;;;;;;;27.23;14.68;;;;;;;4.79;100.00;102134.75;4992275;28;20073;-86
2023/12/19 04:41:20;;;;;;;29.35;15.35;;;;;;;4.81;100.00;102123.63;4994282;28;20482;-86
2023/12/19 04:43:46;;;;;;;28.33;15.02;;;;;;;4.84;100.00;102134.00;4996231;28;20398;-85
2023/12/19 04:46:12;;;;;;;30.15;15.63;;;;;;;4.85;100.00;102120.28;4996613;28;20026;-86
2023/12/19 04:48:37;;;;;;;29.50;15.65;;;;;;;4.91;100.00;102120.50;4996497;28;20076;-85
2023/12/19 04:51:02;;;;;;;28.97;15.93;;;;;;;4.84;100.00;102116.88;4996156;28;20022;-86
2023/12/19 04:53:28;;;;;;;28.08;14.77;;;;;;;4.89;100.00;102120.47;4996846;28;20482;-86
2023/12/19 04:55:53;;;;;;;27.23;14.40;;;;;;;4.87;100.00;102106.66;4996121;28;20022;-86
2023/12/19 04:58:18;;;;;;;26.88;14.25;;;;;;;4.91;100.00;102103.34;4995875;28;20497;-86
2023/12/19 05:00:44;;;;;;;26.52;14.07;;;;;;;4.93;100.00;102108.53;4996202;28;20030;-85
2023/12/19 05:03:09;;;;;;;25.20;13.30;;;;;;;4.90;100.00;102101.59;4997500;28;20042;-85
2023/12/19 05:05:37;;;;;;;25.70;13.95;;;;;;;4.97;100.00;102105.22;4996366;28;20022;-86
2023/12/19 05:08:02;;;;;;;27.17;14.32;;;;;;;4.92;100.00;102104.22;4996997;28;20378;-85
2023/12/19 05:10:28;;;;;;;30.23;15.95;;;;;;;4.97;100.00;102105.22;4997630;28;20101;-86
2023/12/19 05:12:53;;;;;;;26.83;14.68;;;;;;;5.06;100.00;102105.50;4996045;28;20053;-86
2023/12/19 05:15:18;;;;;;;26.67;13.75;;;;;;;5.02;100.00;102095.03;4997016;28;20098;-86
2023/12/19 05:17:43;;;;;;;28.23;15.47;;;;;;;5.04;100.00;102099.44;4996920;28;20109;-86
2023/12/19 05:20:09;;;;;;;27.08;13.93;;;;;;;5.03;100.00;102100.25;4996384;28;20022;-86
2023/12/19 05:22:34;;;;;;;27.80;15.03;;;;;;;5.09;100.00;102109.84;4996642;28;20069;-86
2023/12/19 05:25:00;;;;;;;28.02;15.02;;;;;;;5.10;100.00;102106.44;4996611;28;20042;-86
2023/12/19 05:27:25;;;;;;;26.45;14.23;;;;;;;5.10;100.00;102101.31;4996451;28;20053;-86
2023/12/19 05:29:50;;;;;;;27.00;13.80;;;;;;;5.10;100.00;102097.00;4996738;28;20026;-86
2023/12/19 05:32:16;;;;;;;27.80;14.32;;;;;;;5.14;100.00;102091.97;4996856;28;20467;-86
2023/12/19 05:34:41;;;;;;;27.13;14.90;;;;;;;5.22;100.00;102090.44;4995598;28;20026;-86
2023/12/19 05:37:06;;;;;;;29.65;14.93;;;;;;;5.24;100.00;102093.94;4996371;28;20030;-86
2023/12/19 05:39:31;;;;;;;25.45;13.95;;;;;;;5.21;100.00;102084.44;4996593;28;20026;-86
2023/12/19 05:41:58;;;;;;;24.75;13.43;;;;;;;5.24;100.00;102096.53;4995993;28;20034;-86
2023/12/19 05:44:23;;;;;;;24.40;12.68;;;;;;;5.20;100.00;102093.00;4996441;28;20030;-86
2023/12/19 05:46:50;;;;;;;26.02;13.93;;;;;;;5.23;100.00;102093.09;4996407;28;20143;-86
2023/12/19 05:49:15;;;;;;;25.95;13.38;;;;;;;5.28;100.00;102089.75;4995648;28;20105;-86
2023/12/19 05:51:41;;;;;;;23.88;12.90;;;;;;;5.28;100.00;102077.75;4996034;28;20112;-86
2023/12/19 05:54:10;;;;;;;24.20;12.27;;;;;;;5.25;100.00;102065.66;4995796;28;20456;-86
2023/12/19 05:56:35;;;;;;;25.85;12.98;;;;;;;5.29;100.00;102063.19;4996481;28;20046;-87
2023/12/19 05:59:00;;;;;;;24.37;13.07;;;;;;;5.34;100.00;102053.88;4996230;28;20034;-86
2023/12/19 06:01:26;;;;;;;25.75;13.73;;;;;;;5.35;100.00;102047.88;4995693;28;20093;-86
2023/12/19 06:03:51;;;;;;;26.05;13.68;;;;;;;5.32;100.00;102040.09;4996075;28;20459;-86
2023/12/19 06:06:17;;;;;;;25.08;12.88;;;;;;;5.39;100.00;102053.16;4996352;28;20414;-87
2023/12/19 06:08:42;;;;;;;23.67;12.75;;;;;;;5.38;100.00;102055.69;4995224;28;20033;-85
2023/12/19 06:11:09;;;;;;;25.77;14.10;;;;;;;5.41;100.00;102063.50;4994802;28;20037;-89
2023/12/19 06:13:34;;;;;;;24.35;13.30;;;;;;;5.41;100.00;102056.63;4995301;28;20098;-83
2023/12/19 06:15:59;;;;;;;24.23;13.30;;;;;;;5.43;100.00;102046.38;4995253;28;20114;-83
2023/12/19 06:18:25;;;;;;;26.20;14.13;;;;;;;5.43;100.00;102046.38;4996147;28;20466;-84
2023/12/19 06:20:50;;;;;;;25.95;14.43;;;;;;;5.41;100.00;102048.06;4995611;28;20054;-84
2023/12/19 06:23:15;;;;;;;23.70;12.98;;;;;;;5.43;100.00;102048.06;4995060;28;20502;-84
2023/12/19 06:25:44;;;;;;;22.77;12.20;;;;;;;5.46;100.00;102037.88;4994874;28;20455;-85
2023/12/19 06:28:09;;;;;;;24.60;13.43;;;;;;;5.37;100.00;102033.34;4995257;28;20073;-84
2023/12/19 06:30:35;;;;;;;24.03;12.83;;;;;;;5.46;100.00;102045.59;4994430;28;20030;-84
2023/12/19 06:33:01;;;;;;;24.35;13.30;;;;;;;5.37;100.00;102031.66;4995485;28;20023;-85
2023/12/19 06:35:28;;;;;;;24.47;13.00;;;;;;;5.45;100.00;102043.84;4995559;28;20037;-84
2023/12/19 06:37:54;;;;;;;26.33;13.90;;;;;;;5.48;100.00;102044.78;4994010;28;20035;-85
2023/12/19 06:40:20;;;;;;;24.47;13.90;;;;;;;5.48;100.00;102051.66;4995605;28;20029;-85
2023/12/19 06:42:45;;;;;;;23.30;12.63;;;;;;;5.47;100.00;102044.75;4995016;28;20026;-85
2023/12/19 06:45:12;;;;;;;22.80;11.90;;;;;;;5.47;100.00;102026.75;4994719;28;20363;-85
2023/12/19 06:47:37;;;;;;;23.35;11.88;;;;;;;5.51;100.00;102031.13;4994092;28;20027;-84
2023/12/19 06:50:03;;;;;;;23.25;12.70;;;;;;;5.50;100.00;102024.25;4994750;28;20037;-85
2023/12/19 06:52:30;;;;;;;24.58;12.85;;;;;;;5.55;100.00;102038.09;4994402;28;20021;-85
2023/12/19 06:54:55;;;;;;;23.27;12.23;;;;;;;5.55;100.00;102030.38;4994685;28;20471;-88
2023/12/19 06:57:24;;;;;;;21.70;11.77;;;;;;;5.61;100.00;102042.53;4994458;28;20029;-86
2023/12/19 06:59:50;;;;;;;24.23;13.35;;;;;;;5.61;100.00;102045.09;4993733;28;20423;-85
2023/12/19 07:02:16;;;;;;;23.40;12.97;;;;;;;5.57;100.00;102024.41;4995139;28;20053;-87
2023/12/19 07:05:06;;;;;;;22.45;12.18;;;;;;;5.66;100.00;102026.34;4993612;28;20375;-88
2023/12/19 07:07:38;;;;;;;24.38;13.30;;;;;;;5.57;100.00;102015.81;4995610;28;20030;-87
2023/12/19 07:10:30;;;;;;;23.40;12.35;;;;;;;5.62;100.00;102016.81;4995158;28;20022;-88
2023/12/19 07:13:02;;;;;;;22.52;12.23;;;;;;;5.49;100.00;101994.19;4987929;28;20046;-88
2023/12/19 07:15:27;;;;;;;23.85;13.13;;;;;;;5.69;100.00;102022.97;4984532;23;20114;-88
2023/12/19 07:17:52;;;;;;;22.97;12.33;;;;;;;5.63;100.00;102017.69;4994647;28;20049;-88
2023/12/19 07:20:18;;;;;;;24.47;13.17;;;;;;;5.63;100.00;102015.97;4993686;28;20479;-88
2023/12/19 07:22:46;;;;;;;23.20;12.48;;;;;;;5.63;100.00;102010.81;4994611;28;20082;-88
2023/12/19 07:25:29;;;;;;;23.70;12.60;;;;;;;5.66;100.00;102013.47;4995080;28;20030;-89
2023/12/19 07:28:04;;;;;;;22.17;12.13;;;;;;;5.58;100.00;101989.25;4994622;28;20022;-88
2023/12/19 07:30:29;;;;;;;22.02;12.40;;;;;;;5.59;100.00;101992.66;4994997;28;20025;-88
2023/12/19 07:32:55;;;;;;;24.80;13.77;;;;;;;5.63;100.00;101992.78;4994135;28;20113;-88
2023/12/19 07:35:36;;;;;;;23.23;12.27;;;;;;;5.69;100.00;102010.97;4994297;28;20571;-89
2023/12/19 07:38:01;;;;;;;22.58;11.90;;;;;;;5.66;100.00;101995.44;4993796;28;20109;-88
2023/12/19 07:40:26;;;;;;;23.00;12.47;;;;;;;5.72;100.00;102010.16;4995267;28;20058;-93
2023/12/19 07:42:52;;;;;;;23.73;12.40;;;;;;;5.73;100.00;102014.47;5078872;23;20251;-85
2023/12/19 07:45:17;;;;;;;21.30;11.40;;;;;;;5.77;100.00;102018.00;4954529;29;20035;-89
2023/12/19 07:47:44;;;;;;;20.93;10.90;;;;;;;5.78;100.00;102015.47;4954426;28;20061;-88
2023/12/19 07:50:10;;;;;;;22.40;11.83;;;;;;;5.77;100.00;102011.16;4956204;28;20035;-88
2023/12/19 07:52:36;;;;;;;20.95;11.60;;;;;;;5.77;100.00;102010.28;4954896;28;20031;-88
2023/12/19 07:55:04;;;;;;;24.00;12.60;;;;;;;5.79;100.00;102001.75;4955478;29;20050;-89
2023/12/19 07:57:30;;;;;;;22.92;12.82;;;;;;;5.87;100.00;101997.66;4956068;29;20439;-89
2023/12/19 07:59:55;;;;;;;23.13;12.30;;;;;;;5.87;100.00;102007.06;4956516;29;20106;-92
2023/12/19 08:02:26;;;;;;;22.00;11.25;;;;;;;5.88;100.00;102001.97;4956001;29;20023;-89
2023/12/19 08:04:52;;;;;;;19.35;9.60;;;;;;;5.83;100.00;101985.53;4955993;29;20090;-87
2023/12/19 08:07:17;;;;;;;18.83;9.07;;;;;;;5.88;100.00;101985.63;4955926;29;20028;-86
2023/12/19 08:09:42;;;;;;;20.05;10.13;;;;;;;5.87;100.00;101976.16;4955360;29;20035;-89
2023/12/19 08:12:08;;;;;;;20.00;10.30;;;;;;;5.88;100.00;101975.31;4956306;29;20027;-90
2023/12/19 08:14:33;;;;;;;19.50;9.73;;;;;;;5.91;100.00;101969.38;4955768;29;20086;-89
2023/12/19 08:17:02;;;;;;;20.40;10.10;;;;;;;5.91;100.00;101975.41;4958403;28;20149;-90
2023/12/19 08:19:27;;;;;;;20.92;11.02;;;;;;;5.93;100.00;101978.00;4959887;29;20038;-90
2023/12/19 08:21:54;;;;;;;22.10;11.30;;;;;;;5.94;100.00;101982.31;4958678;29;20081;-91
2023/12/19 08:24:21;;;;;;;19.73;10.50;;;;;;;5.91;100.00;101990.84;4960041;29;20078;-91
2023/12/19 08:26:47;;;;;;;;;;;;;;;5.92;100.00;101983.97;4959508;29;20023;-91
2023/12/19 08:29:12;;;;;;;19.50;9.45;;;;;;;5.85;100.00;101964.97;4958592;29;19921;-91
2023/12/19 08:31:38;;;;;;;20.20;10.10;;;;;;;5.97;100.00;101974.66;4959250;29;20035;-92
2023/12/19 08:34:03;;;;;;;20.47;10.07;;;;;;;5.89;100.00;101977.06;4960209;29;20078;-90
2023/12/19 08:36:29;;;;;;;19.40;9.43;;;;;;;5.87;100.00;101973.56;4958905;29;20066;-90
2023/12/19 08:38:54;;;;;;;19.73;9.57;;;;;;;5.86;100.00;101979.56;4954312;28;20090;-90
2023/12/19 08:41:23;;;;;;;19.77;9.60;;;;;;;5.81;100.00;101983.75;4959953;29;20035;-91
2023/12/19 08:43:48;;;;;;;19.88;10.23;;;;;;;5.82;100.00;101976.06;4959240;28;20078;-90
2023/12/19 08:46:33;;;;;;;18.60;9.13;;;;;;;5.83;100.00;101966.63;4959704;29;20027;-89
2023/12/19 08:48:58;;;;;;;18.60;8.65;;;;;;;5.85;100.00;101972.69;4960364;29;20388;-90
2023/12/19 08:51:31;;;;;;;18.43;9.00;;;;;;;5.82;100.00;101972.63;4958846;29;20042;-89
2023/12/19 08:54:06;;;;;;;19.25;8.95;;;;;;;5.79;100.00;101964.81;4958855;29;20369;-89
2023/12/19 08:56:32;;;;;;;17.77;8.52;;;;;;;5.79;100.00;101969.97;4957585;28;20383;-89
2023/12/19 08:58:57;;;;;;;18.63;9.20;;;;;;;5.78;100.00;101960.50;4958156;29;20157;-89
2023/12/19 09:01:23;;;;;;;18.37;8.97;;;;;;;5.75;100.00;101952.69;4958129;28;20105;-89
2023/12/19 09:03:48;;;;;;;18.03;8.27;;;;;;;5.78;100.00;101958.81;4958193;28;20039;-88
2023/12/19 09:06:13;;;;;;;17.90;8.20;;;;;;;5.82;100.00;101946.84;4959397;28;20023;-89
2023/12/19 09:08:39;;;;;;;18.73;8.53;;;;;;;5.78;100.00;101952.75;4958899;28;20026;-90
2023/12/19 09:11:05;;;;;;;20.95;9.80;;;;;;;5.82;100.00;101954.59;4958988;29;20122;-89
2023/12/19 09:13:30;;;;;;;19.58;9.60;;;;;;;5.79;100.00;101954.50;4959042;29;20038;-89
2023/12/19 09:16:00;;;;;;;20.30;10.10;;;;;;;5.81;100.00;101948.53;4959013;29;20031;-90
2023/12/19 09:18:25;;;;;;;19.80;9.98;;;;;;;5.81;100.00;101953.69;4958933;29;20020;-91
2023/12/19 09:20:51;;;;;;;18.67;9.03;;;;;;;5.77;100.00;101945.88;4959189;29;20024;-90
2023/12/19 09:23:16;;;;;;;18.88;9.15;;;;;;;5.69;100.00;101928.53;4959234;29;20027;-91
2023/12/19 09:25:41;;;;;;;20.07;9.50;;;;;;;5.75;100.00;101927.81;4959103;29;20023;-90
2023/12/19 09:28:13;;;;;;;19.08;8.88;;;;;;;5.76;100.00;101931.25;4958668;28;20480;-89
2023/12/19 09:30:38;;;;;;;18.55;8.68;;;;;;;5.73;100.00;101932.06;4959411;29;20114;-92
2023/12/19 09:33:03;;;;;;;19.10;9.00;;;;;;;5.76;100.00;101931.25;4958501;29;20062;-92
2023/12/19 09:35:30;;;;;;;18.00;8.60;;;;;;;5.75;100.00;101924.34;4959647;29;20107;-91
2023/12/19 09:38:03;;;;;;;17.65;8.43;;;;;;;5.79;100.00;101932.22;4959254;29;20031;-91
2023/12/19 09:40:29;;;;;;;17.88;8.20;;;;;;;5.63;100.00;101912.94;4959213;29;20027;-85
2023/12/19 09:42:59;;;;;;;17.05;8.10;;;;;;;5.62;100.00;101900.94;4955681;29;20051;-89
2023/12/19 09:45:43;;;;;;;15.82;7.10;;;;;;;5.69;100.00;101907.94;4959419;29;20031;-92
2023/12/19 09:48:12;;;;;;;17.70;8.40;;;;;;;5.61;100.00;101894.03;4957535;29;20061;-92
2023/12/19 09:50:42;;;;;;;16.85;7.80;;;;;;;5.64;100.00;101891.50;4958434;29;20031;-92
2023/12/19 09:53:36;;;;;;;15.55;6.93;;;;;;;5.79;100.00;101914.19;4958008;29;20050;-92
2023/12/19 09:56:22;;;;;;;15.77;7.35;;;;;;;5.69;100.00;101882.19;4957698;28;20444;-92
2023/12/19 09:58:55;;;;;;;14.77;6.63;;;;;;;5.75;100.00;101886.59;4957592;28;20055;-93
2023/12/19 10:01:20;;;;;;;14.60;6.80;;;;;;;5.81;100.00;101897.03;4957401;28;20118;-92
2023/12/19 10:03:46;;;;;;;13.73;6.33;;;;;;;5.80;100.00;101890.13;4957966;28;20135;-92
2023/12/19 10:06:14;;;;;;;14.70;6.37;;;;;;;5.75;100.00;101875.41;4958027;28;20015;-91
2023/12/19 10:08:42;;;;;;;15.93;7.97;;;;;;;5.79;100.00;101870.38;4957565;28;20416;-92
2023/12/19 10:11:17;;;;;;;14.05;6.97;;;;;;;5.88;100.00;101888.59;4957639;28;20027;-90
2023/12/19 10:14:37;;;;;;;13.00;6.13;;;;;;;5.90;100.00;101886.03;4957436;28;20027;-89
2023/12/19 10:17:04;;;;;;;13.82;6.65;;;;;;;5.91;100.00;101885.22;5022770;23;20050;-87
2023/12/19 10:19:30;;;;;;;;;;;;;;;5.91;100.00;101887.78;4937766;29;20131;-89
2023/12/19 10:22:08;;;;;;;12.98;6.28;;;;;;;5.91;100.00;101874.06;4938129;29;19919;-90
2023/12/19 10:24:33;;;;;;;11.90;5.90;;;;;;;5.91;100.00;101877.47;4938487;29;20031;-83
2023/12/19 10:27:05;;;;;;;12.33;5.90;;;;;;;5.92;100.00;101876.66;4938255;29;20035;-85
2023/12/19 10:29:36;;;;;;;13.95;6.18;;;;;;;5.96;100.00;101868.16;4937090;29;20115;-91
2023/12/19 10:32:23;;;;;;;13.85;6.25;;;;;;;5.92;100.00;101858.63;4938464;29;20110;-88
2023/12/19 10:34:57;;;;;;;13.88;6.00;;;;;;;5.95;100.00;101855.22;4938671;29;20120;-90
2023/12/19 10:37:27;;;;;;;12.15;6.32;;;;;;;5.91;100.00;101838.84;4937928;29;20086;-90
2023/12/19 10:40:09;;;;;;;14.27;6.43;;;;;;;5.99;100.00;101844.16;4936872;29;20031;-89
2023/12/19 10:42:35;;;;;;;12.10;5.88;;;;;;;6.00;100.00;101833.03;4937066;29;20106;-89
2023/12/19 10:45:04;;;;;;;13.43;6.13;;;;;;;6.01;100.00;101834.78;4937809;29;20115;-90
2023/12/19 10:47:29;;;;;;;13.85;6.82;;;;;;;6.00;100.00;101833.88;4937713;29;20429;-90
2023/12/19 10:49:54;;;;;;;12.63;6.10;;;;;;;6.01;100.00;101827.91;4976291;23;20058;-89
2023/12/19 10:52:22;;;;;;;11.57;6.03;;;;;;;6.03;100.00;101825.34;4995880;28;20041;-89
2023/12/19 10:54:52;;;;;;;14.52;6.60;;;;;;;6.03;100.00;101821.06;4996013;28;20046;-89
2023/12/19 10:57:21;;;;;;;14.73;6.78;;;;;;;5.98;100.00;101802.03;4995227;28;20026;-87
2023/12/19 11:00:30;;;;;;;16.42;7.65;;;;;;;6.04;100.00;101785.84;4975664;28;20089;-90
2023/12/19 11:03:05;;;;;;;14.20;6.63;;;;;;;6.05;100.00;101781.56;4965718;28;20043;-91
2023/12/19 11:05:46;;;;;;;15.27;7.07;;;;;;;6.07;100.00;101785.06;4976153;28;20114;-91
2023/12/19 11:08:17;;;;;;;12.63;6.10;;;;;;;6.08;100.00;101772.19;4976430;28;20046;-91
2023/12/19 11:11:10;;;;;;;13.85;6.10;;;;;;;6.10;100.00;101773.09;4976296;28;20023;-91
2023/12/19 11:13:37;;;;;;;16.23;6.93;;;;;;;6.08;100.00;101759.31;4988177;28;20035;-91